Abell, Maryland
Current Conditions -  °F | °C
As of 3:24 PM on Monday 24 Nov 2014 (Local Time) from K2W6 Reporting Station
Clear Clear  
Wind Chill: 22°   Ceiling: Unl
Heat Index: 22°   Visibility: 10mi
Dew Point: 11°   Wind: 10mph
Humidity: 50%   Direction: 190°S
Pressure: 29.69"   Gusts: 24mph
Location:  38.25°N, 76.74°W
Report Text: K2W6 242024Z AUTO 19009G21KT 160V230 10SM CLR 22/11 A2969 RMK AO1
Loading
Personal Weather Stations






























Interactive Weather Map New forecast layout! Learn more

10-Day Weather Forecast

Advertisements
Track Severe Weather on mobile